Time;durP1;ratioP1;P1;durP2;ratioP2;P2;SDS_P1;SDS_P2;PMS_P1;PMS_P2;Temp;Humidity;BMP_temperature;BMP_pressure;BME280_temperature;BME280_humidity;BME280_pressure;Samples;Min_cycle;Max_cycle;Signal;HPM_P1;HPM_P2
2022/08/31 00:04:31;;;;;;;;;;;;;;;19.53;83.66;102117.84;4903907;29;20526;-60
2022/08/31 00:06:57;;;;;;;;;;;;;;;19.52;83.46;102119.69;4898761;29;19923;-59
2022/08/31 00:09:24;;;;;;;;;;;;;;;19.54;82.16;102125.66;4905509;29;19970;-60
2022/08/31 00:11:50;;;;;;;;;;;;;;;19.51;83.17;102126.00;4888930;29;20694;-60
2022/08/31 00:14:18;;;;;;;;;;;;;;;19.47;84.27;102129.19;4901324;29;19927;-59
2022/08/31 00:16:44;;;;;;;;;;;;;;;19.44;83.35;102121.53;4898642;29;19923;-60
2022/08/31 00:19:11;;;;;;;;;;;;;;;19.45;83.51;102120.56;4903266;29;19926;-60
2022/08/31 00:21:38;;;;;;;;;;;;;;;19.41;83.93;102133.38;4900480;29;19938;-62
2022/08/31 00:24:04;;;;;;;;;;;;;;;19.35;84.60;102131.41;4900921;29;20355;-60
2022/08/31 00:26:31;;;;;;;;;;;;;;;19.35;84.63;102126.91;4909841;29;19938;-60
2022/08/31 00:28:57;;;;;;;;;;;;;;;19.35;84.13;102123.44;4902058;29;19923;-60
2022/08/31 00:31:23;;;;;;;;;;;;;;;19.30;84.31;102129.25;4906509;29;19929;-60
2022/08/31 00:33:51;;;;;;;;;;;;;;;19.29;84.89;102126.78;4895222;29;20410;-62
2022/08/31 00:36:21;;;;;;;;;;;;;;;19.27;83.74;102126.94;4902370;29;19931;-60
2022/08/31 00:38:48;;;;;;;;;;;;;;;19.22;84.96;102123.97;4913744;29;19927;-60
2022/08/31 00:41:15;;;;;;;;;;;;;;;19.19;84.64;102126.97;4905793;29;19931;-60
2022/08/31 00:43:49;;;;;;;;;;;;;;;19.16;85.41;102120.16;4909240;29;19927;-60
2022/08/31 00:46:22;;;;;;;;;;;;;;;19.18;85.55;102122.66;4896231;29;19950;-60
2022/08/31 00:49:06;;;;;;;;;;;;;;;19.11;85.03;102129.63;4908729;29;19927;-60
2022/08/31 00:51:35;;;;;;;;;;;;;;;19.04;86.15;102137.50;4906596;29;19933;-60
2022/08/31 00:54:03;;;;;;;;;;;;;;;19.05;84.98;102125.88;4908025;29;20315;-59
2022/08/31 00:56:30;;;;;;;;;;;;;;;19.04;85.67;102126.03;4908167;29;19971;-61
2022/08/31 00:58:58;;;;;;;;;;;;;;;19.01;85.77;102131.66;4900278;29;19931;-60
2022/08/31 01:01:26;;;;;;;;;;;;;;;18.96;86.22;102118.91;4905586;29;20410;-60
2022/08/31 01:03:53;;;;;;;;;;;;;;;18.95;85.85;102130.53;4894156;29;19933;-60
2022/08/31 01:06:21;;;;;;;;;;;;;;;18.92;86.64;102129.03;4912455;29;19927;-60
2022/08/31 01:08:47;;;;;;;;;;;;;;;18.86;87.13;102132.38;4904255;29;19923;-60
2022/08/31 01:11:15;;;;;;;;;;;;;;;18.90;85.64;102124.91;4911525;29;20388;-60
2022/08/31 01:13:43;;;;;;;;;;;;;;;18.85;86.40;102128.06;4909191;29;20381;-59
2022/08/31 01:16:12;;;;;;;;;;;;;;;18.85;85.88;102135.19;4892936;29;19934;-60
2022/08/31 01:18:40;;;;;;;;;;;;;;;18.78;86.52;102127.88;4910796;29;20296;-60
2022/08/31 01:21:25;;;;;;;;;;;;;;;18.76;86.35;102132.53;4905786;29;19937;-60
2022/08/31 01:23:53;;;;;;;;;;;;;;;18.77;84.42;102122.72;4903150;29;19969;-60
2022/08/31 01:26:22;;;;;;;;;;;;;;;18.76;85.22;102129.88;4893440;29;19934;-59
2022/08/31 01:28:49;;;;;;;;;;;;;;;18.70;86.55;102125.22;4907703;29;19927;-59
2022/08/31 01:31:22;;;;;;;;;;;;;;;18.70;85.41;102127.03;4903500;29;20402;-60
2022/08/31 01:33:49;;;;;;;;;;;;;;;18.74;82.33;102129.22;4910794;29;19930;-60
2022/08/31 01:36:16;;;;;;;;;;;;;;;18.76;83.46;102127.22;4907302;29;19923;-60
2022/08/31 01:38:42;;;;;;;;;;;;;;;18.67;85.52;102132.72;4904973;29;19927;-60
2022/08/31 01:41:09;;;;;;;;;;;;;;;18.65;85.81;102138.19;4911202;29;20500;-59
2022/08/31 01:43:38;;;;;;;;;;;;;;;18.53;85.75;102131.56;4899185;29;19926;-60
2022/08/31 01:46:08;;;;;;;;;;;;;;;18.55;84.80;102133.03;4900636;29;19927;-60
2022/08/31 01:48:35;;;;;;;;;;;;;;;18.53;84.98;102127.06;4901401;29;19923;-60
2022/08/31 01:51:06;;;;;;;;;;;;;;;18.44;85.83;102137.88;4909053;29;19930;-59
2022/08/31 01:53:35;;;;;;;;;;;;;;;18.44;84.47;102127.25;4909128;29;20006;-60
2022/08/31 01:56:09;;;;;;;;;;;;;;;18.38;85.31;102128.72;4901343;29;19930;-59
2022/08/31 01:58:35;;;;;;;;;;;;;;;18.32;85.25;102132.88;4907312;29;19954;-59
2022/08/31 02:01:02;;;;;;;;;;;;;;;18.26;86.14;102122.91;4905580;29;20418;-59
2022/08/31 02:03:42;;;;;;;;;;;;;;;18.24;85.87;102132.88;4907052;29;20264;-60
2022/08/31 02:06:09;;;;;;;;;;;;;;;18.28;83.45;102128.06;4897241;29;20356;-60
2022/08/31 02:08:36;;;;;;;;;;;;;;;18.26;85.22;102132.72;4920461;29;19927;-61
2022/08/31 02:11:05;;;;;;;;;;;;;;;18.25;84.58;102142.53;4895799;29;19982;-60
2022/08/31 02:13:33;;;;;;;;;;;;;;;18.22;83.70;102137.53;4903053;29;19927;-60
2022/08/31 02:15:59;;;;;;;;;;;;;;;18.20;84.09;102131.56;4911309;29;20402;-60
2022/08/31 02:18:26;;;;;;;;;;;;;;;18.19;84.27;102137.88;4905632;29;20022;-60
2022/08/31 02:20:52;;;;;;;;;;;;;;;18.17;83.33;102127.41;4911808;29;19927;-60
2022/08/31 02:23:19;;;;;;;;;;;;;;;18.10;84.12;102130.88;4903984;29;20333;-60
2022/08/31 02:25:45;;;;;;;;;;;;;;;18.07;83.26;102132.06;4910548;29;19970;-60
2022/08/31 02:28:12;;;;;;;;;;;;;;;18.04;83.93;102129.72;4906535;29;20696;-59
2022/08/31 02:30:40;;;;;;;;;;;;;;;18.04;83.40;102134.19;4909458;29;20372;-60
2022/08/31 02:33:07;;;;;;;;;;;;;;;18.00;82.74;102133.69;4905631;29;19924;-60
2022/08/31 02:35:34;;;;;;;;;;;;;;;17.95;83.00;102139.50;4895153;29;19927;-59
2022/08/31 02:38:00;;;;;;;;;;;;;;;17.98;82.60;102135.69;4909605;29;19927;-61
2022/08/31 02:40:27;;;;;;;;;;;;;;;17.95;81.91;102141.31;4894725;29;20440;-60
2022/08/31 02:42:53;;;;;;;;;;;;;;;17.88;82.33;102138.47;4907059;29;19934;-60
2022/08/31 02:45:20;;;;;;;;;;;;;;;17.85;82.02;102148.59;4889638;29;20432;-59
2022/08/31 02:47:47;;;;;;;;;;;;;;;17.84;81.68;102141.59;4902233;29;19927;-62
2022/08/31 02:50:13;;;;;;;;;;;;;;;17.74;82.86;102142.56;4905637;29;19927;-60
2022/08/31 02:52:39;;;;;;;;;;;;;;;17.68;83.17;102140.56;4904991;29;20304;-60
2022/08/31 02:55:06;;;;;;;;;;;;;;;17.60;82.46;102135.19;4904809;29;19931;-60
2022/08/31 02:57:32;;;;;;;;;;;;;;;17.58;83.17;102137.19;4899072;29;19926;-60
2022/08/31 02:59:59;;;;;;;;;;;;;;;17.57;82.54;102135.53;4900453;29;20677;-60
2022/08/31 03:02:25;;;;;;;;;;;;;;;17.54;82.71;102136.69;4899807;29;19929;-61
2022/08/31 03:04:59;;;;;;;;;;;;;;;17.50;81.96;102137.97;4901605;29;20315;-60
2022/08/31 03:07:25;;;;;;;;;;;;;;;17.50;81.52;102132.69;4904957;29;19931;-60
2022/08/31 03:09:52;;;;;;;;;;;;;;;17.47;82.18;102134.84;4903106;29;19934;-60
2022/08/31 03:12:18;;;;;;;;;;;;;;;17.47;81.60;102132.19;4910089;29;19927;-59
2022/08/31 03:14:44;;;;;;;;;;;;;;;17.41;81.58;102130.19;4896240;29;19939;-60
2022/08/31 03:17:10;;;;;;;;;;;;;;;17.39;81.61;102133.81;4904302;29;19930;-60
2022/08/31 03:19:37;;;;;;;;;;;;;;;17.42;80.32;102130.00;4901864;29;19937;-60
2022/08/31 03:22:03;;;;;;;;;;;;;;;17.40;80.90;102129.31;4903124;29;19933;-59
2022/08/31 03:24:30;;;;;;;;;;;;;;;17.43;80.00;102141.47;4903354;29;19927;-60
2022/08/31 03:26:56;;;;;;;;;;;;;;;17.45;79.70;102134.19;4900804;29;19923;-61
2022/08/31 03:29:23;;;;;;;;;;;;;;;17.43;79.67;102125.56;4898380;29;19926;-60
2022/08/31 03:31:49;;;;;;;;;;;;;;;17.36;80.83;102126.16;4896559;29;20377;-59
2022/08/31 03:34:15;;;;;;;;;;;;;;;17.34;80.75;102124.66;4907188;29;19937;-61
2022/08/31 03:36:41;;;;;;;;;;;;;;;17.33;80.19;102118.53;4904960;29;19937;-60
2022/08/31 03:39:08;;;;;;;;;;;;;;;17.34;79.19;102128.13;4909869;29;19953;-60
2022/08/31 03:41:34;;;;;;;;;;;;;;;17.34;79.19;102122.84;4912458;29;20295;-60
2022/08/31 03:44:00;;;;;;;;;;;;;;;17.31;78.62;102123.19;4899834;29;20651;-60
2022/08/31 03:46:28;;;;;;;;;;;;;;;17.27;79.49;102134.25;4903690;29;20003;-60
2022/08/31 03:48:54;;;;;;;;;;;;;;;17.19;78.89;102137.72;4903482;29;19923;-60
2022/08/31 03:51:20;;;;;;;;;;;;;;;17.13;78.83;102138.31;4906301;29;20291;-60
2022/08/31 03:53:47;;;;;;;;;;;;;;;17.08;78.50;102136.16;4904922;29;19923;-60
2022/08/31 03:56:13;;;;;;;;;;;;;;;17.04;78.74;102141.94;4902853;29;19935;-62
2022/08/31 03:58:40;;;;;;;;;;;;;;;17.06;78.70;102134.66;4898706;29;19930;-60
2022/08/31 04:01:06;;;;;;;;;;;;;;;16.96;78.52;102137.41;4894926;29;19930;-60
2022/08/31 04:03:34;;;;;;;;;;;;;;;17.02;77.47;102136.78;4910159;29;20562;-61
2022/08/31 04:06:00;;;;;;;;;;;;;;;16.95;77.41;102143.69;4889000;29;19924;-59
2022/08/31 04:08:27;;;;;;;;;;;;;;;16.98;77.34;102143.38;4903090;29;19999;-60
2022/08/31 04:10:53;;;;;;;;;;;;;;;16.96;77.31;102145.34;4903958;29;19934;-61
2022/08/31 04:13:19;;;;;;;;;;;;;;;16.95;77.07;102143.69;4902681;29;19927;-60
2022/08/31 04:15:46;;;;;;;;;;;;;;;16.95;77.13;102148.97;4907532;29;19923;-60
2022/08/31 04:18:12;;;;;;;;;;;;;;;16.88;77.23;102145.31;4897893;29;19931;-60
2022/08/31 04:20:39;;;;;;;;;;;;;;;16.86;77.05;102144.63;4906780;29;19923;-61
2022/08/31 04:23:06;;;;;;;;;;;;;;;16.84;77.36;102149.22;4904628;29;20398;-60
2022/08/31 04:25:36;;;;;;;;;;;;;;;16.81;77.07;102145.06;4904467;29;19923;-60
2022/08/31 04:28:03;;;;;;;;;;;;;;;16.75;77.17;102146.50;4901853;29;20451;-60
2022/08/31 04:30:29;;;;;;;;;;;;;;;16.77;77.40;102144.53;4895978;29;19923;-61
2022/08/31 04:32:56;;;;;;;;;;;;;;;16.82;76.30;102141.47;4912917;29;19923;-62
2022/08/31 04:35:22;;;;;;;;;;;;;;;16.77;77.20;102146.34;4904187;29;20315;-61
2022/08/31 04:37:48;;;;;;;;;;;;;;;16.72;76.81;102148.63;4894540;29;19942;-60
2022/08/31 04:40:19;;;;;;;;;;;;;;;16.68;77.02;102140.19;4894010;29;19933;-60
2022/08/31 04:42:51;;;;;;;;;;;;;;;16.66;76.18;102144.81;4912386;29;19923;-60
2022/08/31 04:45:17;;;;;;;;;;;;;;;16.67;76.47;102145.63;4900789;29;19927;-58
2022/08/31 04:47:43;;;;;;;;;;;;;;;16.67;76.42;102143.78;4901747;29;19934;-60
2022/08/31 04:50:11;;;;;;;;;;;;;;;16.64;76.70;102148.56;4901957;29;19934;-60
2022/08/31 04:52:38;;;;;;;;;;;;;;;16.57;76.69;102135.13;4907069;29;19941;-60
2022/08/31 04:55:05;;;;;;;;;;;;;;;16.61;76.75;102145.25;4903680;29;19927;-60
2022/08/31 04:57:34;;;;;;;;;;;;;;;16.60;76.62;102148.03;4894695;29;20410;-60
2022/08/31 05:00:02;;;;;;;;;;;;;;;16.63;75.68;102152.22;4907649;29;20079;-60
2022/08/31 05:02:29;;;;;;;;;;;;;;;16.61;75.71;102155.84;4901518;29;19975;-60
2022/08/31 05:04:56;;;;;;;;;;;;;;;16.60;75.60;102156.84;4911361;29;19922;-60
2022/08/31 05:07:23;;;;;;;;;;;;;;;16.66;74.45;102158.03;4905125;29;19923;-61
2022/08/31 05:09:49;;;;;;;;;;;;;;;16.68;75.00;102160.50;4897432;29;19923;-60
2022/08/31 05:12:15;;;;;;;;;;;;;;;16.69;74.41;102160.38;4905912;29;19930;-59
2022/08/31 05:14:42;;;;;;;;;;;;;;;16.67;74.47;102156.22;4905479;29;19927;-60
2022/08/31 05:17:08;;;;;;;;;;;;;;;16.63;75.43;102162.81;4907657;29;19957;-60
2022/08/31 05:19:40;;;;;;;;;;;;;;;16.59;75.01;102164.94;4900891;29;20380;-61
2022/08/31 05:22:06;;;;;;;;;;;;;;;16.63;74.43;102168.94;4899083;29;19967;-60
2022/08/31 05:24:36;;;;;;;;;;;;;;;16.60;74.70;102172.72;4908122;29;19934;-59
2022/08/31 05:27:02;;;;;;;;;;;;;;;16.63;74.97;102174.22;4903203;29;19928;-60
2022/08/31 05:29:28;;;;;;;;;;;;;;;16.58;75.00;102174.69;4912604;29;20686;-59
2022/08/31 05:31:55;;;;;;;;;;;;;;;16.57;74.88;102180.16;4901396;29;19934;-60
2022/08/31 05:34:22;;;;;;;;;;;;;;;16.55;75.76;102176.81;4908877;29;19927;-59
2022/08/31 05:36:50;;;;;;;;;;;;;;;16.55;75.52;102179.47;4895838;29;19931;-61
2022/08/31 05:39:16;;;;;;;;;;;;;;;16.52;75.87;102175.28;4902295;29;19927;-59
2022/08/31 05:41:43;;;;;;;;;;;;;;;16.50;75.50;102190.50;4909258;29;19930;-60
2022/08/31 05:44:10;;;;;;;;;;;;;;;16.53;75.74;102187.56;4902529;29;20017;-60
2022/08/31 05:46:37;;;;;;;;;;;;;;;16.51;76.06;102188.72;4892548;29;19934;-60
2022/08/31 05:49:05;;;;;;;;;;;;;;;16.57;75.63;102186.28;4900174;29;19931;-60
2022/08/31 05:51:32;;;;;;;;;;;;;;;16.57;75.55;102186.28;4904935;29;19927;-60
2022/08/31 05:54:04;;;;;;;;;;;;;;;16.54;74.91;102189.25;4905153;29;19949;-60
2022/08/31 05:56:30;;;;;;;;;;;;;;;16.57;74.52;102194.22;4911373;29;19934;-61
2022/08/31 05:58:56;;;;;;;;;;;;;;;16.55;74.55;102190.06;4910785;29;19930;-59
2022/08/31 06:01:24;;;;;;;;;;;;;;;16.53;74.50;102190.22;4888854;29;19923;-60
2022/08/31 06:03:53;;;;;;;;;;;;;;;16.58;74.43;102195.91;4895749;29;20432;-62
2022/08/31 06:06:20;;;;;;;;;;;;;;;16.57;74.21;102198.69;4902613;29;19978;-60
2022/08/31 06:08:46;;;;;;;;;;;;;;;16.52;73.58;102195.66;4900757;29;19927;-60
2022/08/31 06:11:14;;;;;;;;;;;;;;;16.51;73.80;102196.66;4898966;29;20173;-60
2022/08/31 06:13:41;;;;;;;;;;;;;;;16.56;73.28;102200.50;4910411;29;20376;-58
2022/08/31 06:16:08;;;;;;;;;;;;;;;16.57;73.65;102207.47;4905714;29;19923;-60
2022/08/31 06:18:37;;;;;;;;;;;;;;;16.61;72.45;102200.03;4896549;29;19927;-60
2022/08/31 06:21:08;;;;;;;;;;;;;;;16.62;73.27;102199.03;4909241;29;19927;-58
2022/08/31 06:23:38;;;;;;;;;;;;;;;16.67;73.02;102203.91;4903593;29;20071;-60
2022/08/31 06:26:05;;;;;;;;;;;;;;;16.71;72.92;102207.91;4908918;29;19927;-59
2022/08/31 06:28:33;;;;;;;;;;;;;;;16.66;72.95;102200.44;4899429;29;19963;-60
2022/08/31 06:31:01;;;;;;;;;;;;;;;16.76;72.62;102203.00;4906798;29;19930;-60
2022/08/31 06:33:28;;;;;;;;;;;;;;;16.75;72.84;102199.50;4910982;29;20337;-59
2022/08/31 06:35:55;;;;;;;;;;;;;;;16.72;73.04;102210.41;4905903;29;19927;-59
2022/08/31 06:38:21;;;;;;;;;;;;;;;16.72;73.68;102207.75;4910158;29;19923;-59
2022/08/31 06:40:47;;;;;;;;;;;;;;;16.75;72.99;102204.78;4898162;29;19954;-60
2022/08/31 06:43:14;;;;;;;;;;;;;;;16.77;72.93;102217.88;4901953;29;19950;-59
2022/08/31 06:45:41;;;;;;;;;;;;;;;16.78;73.24;102207.16;4897363;29;19923;-60
2022/08/31 06:48:07;;;;;;;;;;;;;;;16.78;73.54;102204.50;4897429;29;19923;-60
2022/08/31 06:50:33;;;;;;;;;;;;;;;16.84;73.55;102213.69;4910791;29;20427;-60
2022/08/31 06:52:59;;;;;;;;;;;;;;;16.75;73.38;102206.63;4904997;29;19938;-60
2022/08/31 06:55:26;;;;;;;;;;;;;;;16.75;73.79;102214.56;4908835;29;19933;-59
2022/08/31 06:57:52;;;;;;;;;;;;;;;16.74;73.48;102219.03;4893107;29;19954;-60
2022/08/31 07:00:18;;;;;;;;;;;;;;;16.78;73.96;102214.28;4901159;29;20320;-60
2022/08/31 07:02:45;;;;;;;;;;;;;;;16.82;73.09;102214.81;4901084;29;19927;-60
2022/08/31 07:05:18;;;;;;;;;;;;;;;16.86;74.23;102222.31;4910145;29;20618;-62
2022/08/31 07:07:49;;;;;;;;;;;;;;;16.82;74.66;102220.09;4907502;29;19931;-60
2022/08/31 07:10:18;;;;;;;;;;;;;;;16.86;74.36;102222.31;4887702;29;20153;-60
2022/08/31 07:12:44;;;;;;;;;;;;;;;16.91;74.39;102227.13;4897345;29;19933;-60
2022/08/31 07:15:10;;;;;;;;;;;;;;;16.96;74.13;102232.81;4903256;29;20312;-60
2022/08/31 07:17:37;;;;;;;;;;;;;;;17.00;74.74;102236.81;4906154;29;20265;-60
2022/08/31 07:20:03;;;;;;;;;;;;;;;17.00;75.64;102228.88;4888390;29;19933;-60
2022/08/31 07:22:29;;;;;;;;;;;;;;;17.00;76.19;102227.06;4909861;29;19927;-60
2022/08/31 07:24:56;;;;;;;;;;;;;;;17.05;75.44;102234.53;4906415;29;19923;-60
2022/08/31 07:27:22;;;;;;;;;;;;;;;17.06;76.09;102222.94;4903775;29;19927;-60
2022/08/31 07:29:48;;;;;;;;;;;;;;;17.19;75.06;102233.16;4909383;29;20396;-60
2022/08/31 07:32:16;;;;;;;;;;;;;;;17.30;74.51;102234.72;4901434;29;19927;-61
2022/08/31 07:34:43;;;;;;;;;;;;;;;17.30;75.80;102234.72;4901402;29;19927;-59
2022/08/31 07:42:45;;;;;;;;;;;;;;;17.46;77.30;102236.63;4904158;29;20017;-60
2022/08/31 07:45:18;;;;;;;;;;;;;;;17.56;75.53;102235.53;4914969;29;19927;-60
2022/08/31 07:47:51;;;;;;;;;;;;;;;17.57;77.27;102228.41;4907789;29;21014;-60
2022/08/31 07:50:18;;;;;;;;;;;;;;;17.65;77.18;102227.59;4905931;29;19933;-59
2022/08/31 07:52:46;;;;;;;;;;;;;;;17.71;77.04;102233.09;4901331;29;19927;-59
2022/08/31 07:55:14;;;;;;;;;;;;;;;17.82;77.43;102234.66;4902760;29;19923;-59
2022/08/31 07:57:43;;;;;;;;;;;;;;;17.86;77.83;102230.72;4911327;29;19931;-60
2022/08/31 08:00:14;;;;;;;;;;;;;;;17.91;77.99;102236.34;4908999;29;19926;-60
2022/08/31 08:02:46;;;;;;;;;;;;;;;17.95;77.91;102236.88;4914979;29;20480;-60
2022/08/31 08:05:21;;;;;;;;;;;;;;;18.09;77.28;102235.41;4902378;29;19962;-60
2022/08/31 08:07:53;;;;;;;;;;;;;;;18.16;76.26;102242.56;4912556;29;19927;-60
2022/08/31 08:10:21;;;;;;;;;;;;;;;18.28;76.16;102244.94;4913550;29;19931;-60
2022/08/31 08:12:56;;;;;;;;;;;;;;;18.48;74.83;102248.94;4904401;29;19934;-60
2022/08/31 08:15:24;;;;;;;;;;;;;;;18.64;74.95;102249.97;4890829;29;19927;-60
2022/08/31 08:17:51;;;;;;;;;;;;;;;18.89;74.04;102250.84;4906036;29;19949;-60
2022/08/31 08:20:19;;;;;;;;;;;;;;;19.07;73.42;102250.66;4906061;29;19938;-60
2022/08/31 08:23:10;;;;;;;;;;;;;;;19.33;73.00;102247.81;4907493;29;19927;-60
2022/08/31 08:25:38;;;;;;;;;;;;;;;19.56;71.48;102258.53;4916482;29;19926;-60
2022/08/31 08:28:08;;;;;;;;;;;;;;;19.74;70.54;102253.88;4902510;29;19922;-60
2022/08/31 08:30:59;;;;;;;;;;;;;;;19.87;70.36;102257.81;4909476;29;19934;-60
2022/08/31 08:33:27;;;;;;;;;;;;;;;19.96;69.46;102254.09;4909801;29;20010;-60
2022/08/31 08:35:55;;;;;;;;;;;;;;;19.88;69.55;102254.97;4903495;29;19948;-60
2022/08/31 08:38:25;;;;;;;;;;;;;;;19.99;69.12;102252.91;4915217;29;19937;-60
2022/08/31 08:40:53;;;;;;;;;;;;;;;20.14;69.11;102257.34;4905857;29;19927;-60
2022/08/31 08:43:23;;;;;;;;;;;;;;;20.33;68.81;102247.25;4912314;29;20006;-61
2022/08/31 08:45:56;;;;;;;;;;;;;;;20.33;68.86;102264.06;4904899;29;19927;-60
2022/08/31 08:48:25;;;;;;;;;;;;;;;20.40;68.92;102255.34;4901362;29;19927;-61
2022/08/31 08:50:52;;;;;;;;;;;;;;;20.38;68.50;102266.19;4903082;29;19927;-60
2022/08/31 08:53:21;;;;;;;;;;;;;;;20.49;68.95;102256.97;4906357;29;20292;-62
2022/08/31 08:55:47;;;;;;;;;;;;;;;20.62;68.57;102259.06;4912189;29;20296;-60
2022/08/31 08:58:18;;;;;;;;;;;;;;;20.74;68.38;102261.13;4905403;29;19945;-61
2022/08/31 09:00:48;;;;;;;;;;;;;;;20.97;68.29;102254.94;4908218;29;20527;-60
2022/08/31 09:03:23;;;;;;;;;;;;;;;21.19;67.42;102253.25;4901563;29;19930;-61
2022/08/31 09:05:55;;;;;;;;;;;;;;;21.31;66.71;102253.63;4913154;29;20651;-60
2022/08/31 09:08:31;;;;;;;;;;;;;;;21.50;66.93;102250.44;4901460;29;19933;-60
2022/08/31 09:11:17;;;;;;;;;;;;;;;21.75;66.85;102241.31;4912911;29;20350;-60
2022/08/31 09:14:05;;;;;;;;;;;;;;;22.00;65.92;102237.28;4900936;29;19927;-60
2022/08/31 09:16:46;;;;;;;;;;;;;;;22.23;64.95;102236.31;4897318;29;19931;-61
2022/08/31 09:19:15;;;;;;;;;;;;;;;22.47;64.30;102235.16;4910071;29;19923;-60
2022/08/31 09:22:02;;;;;;;;;;;;;;;22.64;63.99;102244.56;4908129;29;19927;-61
2022/08/31 09:24:31;;;;;;;;;;;;;;;22.76;63.25;102238.66;4912524;29;19929;-62
2022/08/31 09:27:01;;;;;;;;;;;;;;;22.99;62.60;102238.44;4899489;29;19923;-61
2022/08/31 09:29:29;;;;;;;;;;;;;;;23.20;62.50;102242.97;4907057;29;20380;-61
2022/08/31 09:32:01;;;;;;;;;;;;;;;23.41;61.77;102224.13;4907964;29;20489;-60
2022/08/31 09:34:35;;;;;;;;;;;;;;;23.54;61.30;102226.06;4912485;29;19927;-61
2022/08/31 09:37:16;;;;;;;;;;;;;;;23.66;60.90;102231.69;4905242;29;19927;-61
2022/08/31 09:39:46;;;;;;;;;;;;;;;23.73;59.89;102232.53;4909606;29;20641;-60
2022/08/31 09:42:29;;;;;;;;;;;;;;;23.75;59.80;102230.47;4898081;29;20360;-60
2022/08/31 09:45:00;;;;;;;;;;;;;;;23.83;59.41;102240.22;4910625;29;19923;-61
2022/08/31 09:47:49;;;;;;;;;;;;;;;23.97;59.46;102225.84;4911939;29;19949;-60
2022/08/31 09:50:34;;;;;;;;;;;;;;;24.16;58.97;102234.13;4901068;29;19922;-62
2022/08/31 09:56:12;;;;;;;;;;;;;;;24.38;58.17;102227.56;4902677;29;20359;-61
2022/08/31 09:58:40;;;;;;;;;;;;;;;24.54;57.72;102225.56;4906209;29;19927;-60
2022/08/31 10:01:11;;;;;;;;;;;;;;;24.56;56.55;102218.13;4905432;29;19923;-61
2022/08/31 10:03:43;;;;;;;;;;;;;;;24.71;56.96;102220.63;4909339;29;19959;-62
2022/08/31 10:06:29;;;;;;;;;;;;;;;24.89;56.83;102230.72;4900619;29;19927;-61
2022/08/31 10:08:57;;;;;;;;;;;;;;;24.95;54.64;102225.34;4906083;29;19927;-62
2022/08/31 10:11:29;;;;;;;;;;;;;;;25.09;55.46;102228.84;4901449;29;19926;-60
2022/08/31 10:14:02;;;;;;;;;;;;;;;24.99;55.03;102229.28;4908990;29;19923;-61
2022/08/31 10:16:29;;;;;;;;;;;;;;;24.95;55.22;102232.56;4886064;29;19930;-61
2022/08/31 10:18:58;;;;;;;;;;;;;;;25.21;55.52;102234.41;4908543;29;19978;-61
2022/08/31 10:21:34;;;;;;;;;;;;;;;25.32;55.26;102224.88;4908616;29;19927;-61
2022/08/31 10:24:09;;;;;;;;;;;;;;;25.74;54.78;102228.88;4895682;29;19922;-61
2022/08/31 10:26:38;;;;;;;;;;;;;;;25.72;54.07;102222.88;4911532;29;19939;-60
2022/08/31 10:29:12;;;;;;;;;;;;;;;25.83;54.52;102224.06;4893831;29;19934;-61
2022/08/31 10:31:50;;;;;;;;;;;;;;;25.71;54.12;102215.84;4904985;29;20053;-60
2022/08/31 10:37:16;;;;;;;;;;;;;;;25.58;54.59;102222.13;4904955;29;19927;-61
2022/08/31 10:39:47;;;;;;;;;;;;;;;25.86;53.98;102204.84;4905679;29;19937;-63
2022/08/31 10:42:17;;;;;;;;;;;;;;;26.16;52.84;102206.94;4910797;29;19973;-62
2022/08/31 10:44:55;;;;;;;;;;;;;;;26.58;52.87;102204.56;4894827;29;19927;-62
2022/08/31 10:47:27;;;;;;;;;;;;;;;26.78;51.48;102197.16;4896778;29;20025;-62
2022/08/31 10:50:02;;;;;;;;;;;;;;;26.74;51.76;102208.63;4895684;29;19927;-62
2022/08/31 10:52:31;;;;;;;;;;;;;;;26.74;51.83;102200.53;4893549;29;19930;-62
2022/08/31 10:55:22;;;;;;;;;;;;;;;26.76;51.39;102204.66;4911219;29;19923;-62
2022/08/31 10:57:51;;;;;;;;;;;;;;;26.89;52.23;102209.06;4896278;29;19926;-62
2022/08/31 11:03:04;;;;;;;;;;;;;;;27.31;50.64;102198.50;4901152;29;19927;-63
2022/08/31 11:05:48;;;;;;;;;;;;;;;27.50;49.58;102210.09;4900689;29;19923;-61
2022/08/31 11:08:19;;;;;;;;;;;;;;;27.63;49.46;102203.72;4904069;29;19923;-61
2022/08/31 11:10:47;;;;;;;;;;;;;;;27.65;50.60;102200.78;4906707;29;19941;-61
2022/08/31 11:13:34;;;;;;;;;;;;;;;27.68;50.07;102205.72;4895760;29;20269;-61
2022/08/31 11:16:09;;;;;;;;;;;;;;;27.60;49.60;102199.59;4904686;29;19991;-62
2022/08/31 11:18:54;;;;;;;;;;;;;;;27.78;49.83;102201.44;4903769;29;19931;-60
2022/08/31 11:21:45;;;;;;;;;;;;;;;28.10;48.86;102205.78;4899778;29;20400;-59
2022/08/31 11:24:30;;;;;;;;;;;;;;;28.29;48.56;102214.66;4910083;29;20649;-61
2022/08/31 11:27:10;;;;;;;;;;;;;;;28.54;47.43;102206.34;4904343;29;20285;-62
2022/08/31 11:29:43;;;;;;;;;;;;;;;28.77;47.43;102195.56;4907562;29;20543;-60
2022/08/31 11:32:23;;;;;;;;;;;;;;;28.97;46.91;102199.78;4898178;29;19923;-61
2022/08/31 11:34:52;;;;;;;;;;;;;;;29.29;46.86;102199.41;4908783;29;20369;-61
2022/08/31 11:37:37;;;;;;;;;;;;;;;29.38;45.70;102204.22;4897328;29;19927;-60
2022/08/31 11:40:08;;;;;;;;;;;;;;;29.33;45.87;102203.28;4903394;29;19933;-62
2022/08/31 11:42:41;;;;;;;;;;;;;;;29.49;46.13;102197.09;4891165;29;20046;-65
2022/08/31 11:45:24;;;;;;;;;;;;;;;29.60;45.84;102191.91;4898895;29;19923;-64
2022/08/31 11:47:53;;;;;;;;;;;;;;;29.67;45.35;102187.97;4899529;29;20414;-65
2022/08/31 11:50:20;;;;;;;;;;;;;;;29.75;45.55;102189.50;4890122;29;19927;-64
2022/08/31 11:52:47;;;;;;;;;;;;;;;29.83;45.34;102178.28;4910502;29;19923;-65
2022/08/31 11:55:13;;;;;;;;;;;;;;;29.96;45.40;102178.00;4900741;29;20025;-66
2022/08/31 11:58:05;;;;;;;;;;;;;;;29.99;44.66;102179.41;4909717;29;19934;-63
2022/08/31 12:00:41;;;;;;;;;;;;;;;30.04;45.28;102181.38;4901224;29;20006;-65
2022/08/31 12:03:09;;;;;;;;;;;;;;;29.86;44.91;102180.53;4910124;29;19927;-62
2022/08/31 12:05:46;;;;;;;;;;;;;;;30.00;44.33;102166.69;4903692;29;19934;-62
2022/08/31 12:08:14;;;;;;;;;;;;;;;30.12;44.13;102178.25;4907025;29;20205;-64
2022/08/31 12:10:52;;;;;;;;;;;;;;;30.13;43.91;102166.38;4897216;29;19934;-64
2022/08/31 12:13:29;;;;;;;;;;;;;;;30.19;43.95;102172.66;4903251;29;19927;-63
2022/08/31 12:16:16;;;;;;;;;;;;;;;30.20;44.42;102163.50;4916719;29;19927;-63
2022/08/31 12:18:49;;;;;;;;;;;;;;;30.25;44.25;102167.13;4902433;29;19927;-63
2022/08/31 12:24:28;;;;;;;;;;;;;;;30.40;43.44;102161.13;4890663;29;19923;-64
2022/08/31 12:27:13;;;;;;;;;;;;;;;30.43;43.55;102163.34;4907292;29;19930;-62
2022/08/31 12:29:40;;;;;;;;;;;;;;;30.37;43.44;102152.72;4897263;29;19927;-63
2022/08/31 12:32:12;;;;;;;;;;;;;;;30.40;44.01;102149.50;4908678;29;19923;-66
2022/08/31 12:34:47;;;;;;;;;;;;;;;30.37;44.27;102158.94;4907324;29;19926;-66
2022/08/31 12:37:21;;;;;;;;;;;;;;;30.49;43.97;102153.44;4907106;29;19927;-63
2022/08/31 12:39:48;;;;;;;;;;;;;;;30.49;44.11;102156.13;4900528;29;20919;-62
2022/08/31 12:42:14;;;;;;;;;;;;;;;30.55;43.74;102147.81;4913155;29;19927;-61
2022/08/31 12:44:47;;;;;;;;;;;;;;;30.65;43.73;102144.44;4907621;29;19927;-62
2022/08/31 12:47:16;;;;;;;;;;;;;;;30.60;42.83;102144.41;4917335;29;19970;-62
2022/08/31 12:49:53;;;;;;;;;;;;;;;30.30;43.91;102153.66;4902509;29;20073;-62
2022/08/31 12:52:26;;;;;;;;;;;;;;;29.93;43.54;102137.09;4897931;29;20984;-62
2022/08/31 12:54:52;;;;;;;;;;;;;;;29.71;44.23;102135.06;4912539;29;19933;-62
2022/08/31 12:57:21;;;;;;;;;;;;;;;29.44;45.41;102134.03;4901901;29;19927;-62
2022/08/31 12:59:52;;;;;;;;;;;;;;;29.23;45.73;102125.53;4902388;29;20021;-61
2022/08/31 13:02:28;;;;;;;;;;;;;;;29.13;46.23;102136.97;4905335;29;20384;-61
2022/08/31 13:04:55;;;;;;;;;;;;;;;28.70;46.03;102132.78;4904357;29;19978;-62
2022/08/31 13:07:27;;;;;;;;;;;;;;;28.68;46.41;102131.38;4907758;29;19937;-63
2022/08/31 13:10:09;;;;;;;;;;;;;;;28.92;47.73;102119.47;4902964;29;19931;-63